Leming, TX (78050)

1:13 PM CDT on May 06, 2015 (GMT -0500)
APRSWXNET | | Change Station
CLOSE
Current Station
Personal Weather Station
Location: Poteet, TX
Elevation: 610 ft
Nearby Weather Stations

Elev 610 ft 29.14 °N, 98.57 °W | Updated 30 minutes ago

Overcast
Overcast
79 °F
Feels Like 82 °F
N
0
Wind Variable Wind from SE
Gusts 11.0 mph

Today
High -- | Low -- °F
--% Chance of Precip.
Yesterday
High -- | Low -- °F
Precip. -- in
6:48 AM 8:12 PM
Waning Gibbous, 93% visible
Pressure 29.93 in
Visibility 7.0 miles
Clouds Mostly Cloudy 6500 ft
Mostly Cloudy 9000 ft
Heat Index 82 °F
Dew Point 70 °F
Humidity 75%
Rainfall in
Snow Depth Not available.
UV 6 out of 12
Pollen 5.80 out of 12
Air Quality Not available.
Flu Activity Sporadic
METAR KPEZ 061755Z AUTO 14009G15KT 7SM BKN065 BKN090 27/20 A2993 RMK AO2 T02660201 10266 20221

More Conditions Fewer Conditions

Pressure 29.93 in
Visibility 7.0 miles
Clouds Mostly Cloudy 6500 ft
Mostly Cloudy 9000 ft
Heat Index 82 °F
Dew Point 70 °F
Humidity 75%
Rainfall in
Snow Depth Not available.
UV 6 out of 12
Pollen 5.80 out of 12
Air Quality Not available.
Flu Activity Sporadic
METAR KPEZ 061755Z AUTO 14009G15KT 7SM BKN065 BKN090 27/20 A2993 RMK AO2 T02660201 10266 20221

More Conditions Fewer Conditions

Nowcast | as of 1:02 PM CDT on May 6, 2015

Through 2 PM...isolated to widely scattered showers will move north across south central Texas and The Hill Country. Rainfall amounts up to one quarter inch are possible.

×

10-Day Weather Forecast

Almanac

Astronomy

May. 06, 2015 Rise Set
Actual Time
Civil Twilight
Nautical Twilight
Astronomical Twilight
Moon
Length of Visible Light
Length of Day
Tomorrow will be .
, % of the Moon is Illuminated

Today's Extremes

State Highs State Lows

Community

WunderPhotos

Upload Photos

1,818,961 photos uploaded!

WunderBlogs® & News

Nearby

Air Quality

  Air Quality AQ Index Pollutant
Not available.

Snow Depth

Station Depth Elevation

Earthquake Activity

City Distance Mag. Time & Date
Minimum magnitude displayed is 2.5.

Coastal Water Temperatures

Place Temperature

Stations

Nearby Weather Stations

Station Location Temp. Windchill Dew Point Humidity Wind Precip. Elev Updated Type